Time;durP1;ratioP1;P1;durP2;ratioP2;P2;SDS_P1;SDS_P2;PMS_P1;PMS_P2;Temp;Humidity;BMP_temperature;BMP_pressure;BME280_temperature;BME280_humidity;BME280_pressure;Samples;Min_cycle;Max_cycle;Signal;HPM_P1;HPM_P2
2023/06/10 00:00:56;;;;;;;21.73;10.02;;;23.30;98.90;;;;;;5077625;28;20039;-72
2023/06/10 00:04:00;;;;;;;18.10;9.02;;;23.30;99.00;;;;;;5090168;28;20055;-71
2023/06/10 00:07:08;;;;;;;12.97;7.53;;;23.30;98.90;;;;;;5048900;28;1161463;-71
2023/06/10 00:10:12;;;;;;;19.52;8.77;;;23.30;98.90;;;;;;5090707;28;20514;-72
2023/06/10 00:13:16;;;;;;;15.05;8.27;;;23.30;98.90;;;;;;5090978;28;20047;-72
2023/06/10 00:16:20;;;;;;;15.77;7.03;;;23.30;98.90;;;;;;5090760;28;20043;-72
2023/06/10 00:19:29;;;;;;;15.68;7.82;;;23.40;98.80;;;;;;5090813;28;20073;-72
2023/06/10 00:22:34;;;;;;;13.73;8.00;;;23.40;98.70;;;;;;5091018;28;20395;-72
2023/06/10 00:25:38;;;;;;;22.13;8.27;;;23.40;98.80;;;;;;5090932;28;20051;-72
2023/06/10 00:28:42;;;;;;;15.75;9.30;;;23.30;99.00;;;;;;5090404;28;20047;-72
2023/06/10 00:31:46;;;;;;;20.92;8.93;;;23.20;99.00;;;;;;5090433;28;20226;-72
2023/06/10 00:34:50;;;;;;;17.50;8.15;;;23.20;99.00;;;;;;5090675;28;20047;-72
2023/06/10 00:37:54;;;;;;;11.48;7.10;;;23.10;99.10;;;;;;5090624;28;20380;-72
2023/06/10 00:40:58;;;;;;;9.25;6.90;;;23.10;99.30;;;;;;5090363;28;20039;-72
2023/06/10 00:44:02;;;;;;;21.55;7.30;;;23.10;99.00;;;;;;5089575;28;20240;-71
2023/06/10 00:47:07;;;;;;;18.98;7.78;;;23.20;99.10;;;;;;5078095;28;20058;-71
2023/06/10 00:50:12;;;;;;;12.82;8.20;;;23.10;99.10;;;;;;5090330;28;20046;-71
2023/06/10 00:53:16;;;;;;;12.60;7.43;;;23.10;99.20;;;;;;5090457;28;20062;-72
2023/06/10 00:56:21;;;;;;;17.63;8.10;;;23.10;99.30;;;;;;5090396;28;20043;-71
2023/06/10 00:59:25;;;;;;;19.70;8.52;;;23.10;99.40;;;;;;5077896;28;20035;-71
2023/06/10 01:02:30;;;;;;;11.48;7.53;;;23.00;99.30;;;;;;5090429;28;20094;-71
2023/06/10 01:05:36;;;;;;;15.23;7.20;;;23.00;99.40;;;;;;5077850;28;20039;-72
2023/06/10 01:09:09;;;;;;;14.68;7.53;;;23.10;99.20;;;;;;5093763;28;20055;-72
2023/06/10 01:12:54;;;;;;;15.07;7.72;;;23.10;99.10;;;;;;5076673;28;20399;-72
2023/06/10 01:15:59;;;;;;;12.60;7.38;;;23.10;99.20;;;;;;5081498;28;20134;-72
2023/06/10 01:19:03;;;;;;;14.10;7.95;;;23.10;99.20;;;;;;5093669;28;20511;-72
2023/06/10 01:22:07;;;;;;;13.60;8.15;;;23.10;99.20;;;;;;5093757;28;20050;-72
2023/06/10 01:25:12;;;;;;;18.95;8.40;;;23.10;99.40;;;;;;5081024;28;20039;-72
2023/06/10 01:28:36;;;;;;;15.23;8.52;;;23.10;99.50;;;;;;5093771;28;20055;-72
2023/06/10 01:31:56;;;;;;;18.48;8.07;;;23.00;99.50;;;;;;5093410;28;20048;-72
2023/06/10 01:35:03;;;;;;;11.68;8.23;;;22.90;99.70;;;;;;5093463;28;20055;-72
2023/06/10 01:38:08;;;;;;;14.07;8.98;;;23.00;99.90;;;;;;5080862;28;20213;-72
2023/06/10 01:41:17;;;;;;;16.80;8.63;;;23.00;99.80;;;;;;5081064;28;20048;-72
2023/06/10 01:44:23;;;;;;;15.93;8.70;;;23.00;99.80;;;;;;5080573;28;20059;-72
2023/06/10 01:47:27;;;;;;;16.10;9.15;;;23.00;99.80;;;;;;5093432;28;20047;-72
2023/06/10 01:50:31;;;;;;;14.13;8.30;;;22.90;99.80;;;;;;5093362;28;20039;-72
2023/06/10 01:53:35;;;;;;;12.73;8.63;;;22.90;99.90;;;;;;5092842;28;20510;-72
2023/06/10 01:56:38;;;;;;;16.17;8.02;;;22.90;99.90;;;;;;5080532;28;20062;-72
2023/06/10 01:59:44;;;;;;;23.35;8.07;;;22.80;99.90;;;;;;5080489;28;20395;-72
2023/06/10 02:02:48;;;;;;;18.42;8.50;;;22.80;99.90;;;;;;5080484;28;20503;-72
2023/06/10 02:05:52;;;;;;;15.50;7.72;;;22.90;99.90;;;;;;5068820;28;20055;-72
2023/06/10 02:08:56;;;;;;;19.70;7.35;;;22.90;99.90;;;;;;5092469;28;20547;-72
2023/06/10 02:12:03;;;;;;;16.23;8.65;;;22.90;99.90;;;;;;5080174;28;20051;-72
2023/06/10 02:15:07;;;;;;;17.90;8.75;;;23.00;99.90;;;;;;5092342;28;20063;-72
2023/06/10 02:18:11;;;;;;;14.93;7.45;;;23.00;99.90;;;;;;5091836;28;20043;-72
2023/06/10 02:21:15;;;;;;;17.75;7.82;;;23.00;99.90;;;;;;5092520;28;20486;-72
2023/06/10 02:24:19;;;;;;;15.82;8.10;;;23.00;99.70;;;;;;5079868;28;20043;-72
2023/06/10 02:27:23;;;;;;;19.20;7.57;;;23.00;99.90;;;;;;5092457;28;20067;-72
2023/06/10 02:30:27;;;;;;;15.13;7.75;;;23.00;99.90;;;;;;5080025;28;20403;-72
2023/06/10 02:33:33;;;;;;;13.00;8.13;;;22.90;99.90;;;;;;5079729;28;20047;-72
2023/06/10 02:36:37;;;;;;;11.77;7.93;;;22.90;99.90;;;;;;5091134;28;20538;-72
2023/06/10 02:39:41;;;;;;;20.20;8.05;;;22.80;99.90;;;;;;5079505;28;20039;-72
2023/06/10 02:42:48;;;;;;;15.85;7.80;;;22.80;99.90;;;;;;5079636;28;20039;-72
2023/06/10 02:45:52;;;;;;;18.95;8.90;;;22.70;99.90;;;;;;5079266;28;20038;-72
2023/06/10 02:48:57;;;;;;;12.55;7.85;;;22.80;99.90;;;;;;5079638;28;20297;-72
2023/06/10 02:52:02;;;;;;;16.80;9.13;;;22.80;99.90;;;;;;5079777;28;20051;-72
2023/06/10 02:55:07;;;;;;;16.25;9.48;;;22.80;99.90;;;;;;5079272;28;20055;-72
2023/06/10 02:58:11;;;;;;;18.98;8.85;;;22.80;99.90;;;;;;5067717;28;20054;-72
2023/06/10 03:01:15;;;;;;;15.38;8.80;;;22.80;99.90;;;;;;5079471;28;20051;-72
2023/06/10 03:04:28;;;;;;;16.50;8.90;;;22.80;99.90;;;;;;5079112;28;20054;-72
2023/06/10 03:07:40;;;;;;;16.27;9.48;;;22.70;99.90;;;;;;5078674;28;20043;-71
2023/06/10 03:10:44;;;;;;;19.05;8.13;;;22.70;99.90;;;;;;5067953;28;20400;-72
2023/06/10 03:13:53;;;;;;;15.10;9.40;;;22.70;99.90;;;;;;5078834;28;20506;-72
2023/06/10 03:16:59;;;;;;;19.85;9.93;;;22.70;99.90;;;;;;5079035;28;20055;-71
2023/06/10 03:20:10;;;;;;;13.43;8.68;;;22.70;99.90;;;;;;5079050;28;20035;-71
2023/06/10 03:23:15;;;;;;;16.30;8.77;;;22.70;99.90;;;;;;5079310;28;20502;-72
2023/06/10 03:26:21;;;;;;;13.20;8.82;;;22.70;99.90;;;;;;5091360;28;20269;-72
2023/06/10 03:29:25;;;;;;;15.30;9.23;;;22.70;99.90;;;;;;5078822;28;20039;-72
2023/06/10 03:32:30;;;;;;;18.40;10.15;;;22.70;99.90;;;;;;5079174;28;20047;-72
2023/06/10 03:35:34;;;;;;;16.98;9.55;;;22.60;99.90;;;;;;5078592;28;20051;-71
2023/06/10 03:38:39;;;;;;;30.13;9.82;;;22.60;99.90;;;;;;5078376;28;20039;-71
2023/06/10 03:41:45;;;;;;;21.27;11.18;;;22.50;99.90;;;;;;5078960;28;20066;-72
2023/06/10 03:44:50;;;;;;;22.27;10.15;;;22.50;99.90;;;;;;5090115;28;20043;-71
2023/06/10 03:47:55;;;;;;;21.15;9.73;;;22.50;99.90;;;;;;5078481;28;20059;-71
2023/06/10 03:51:03;;;;;;;17.35;9.32;;;22.40;99.90;;;;;;5078913;28;20047;-71
2023/06/10 03:54:06;;;;;;;16.30;9.63;;;22.30;99.90;;;;;;5090846;28;20511;-71
2023/06/10 03:57:10;;;;;;;17.10;9.60;;;22.40;99.90;;;;;;5078493;28;20210;-71
2023/06/10 04:00:17;;;;;;;17.58;9.80;;;22.40;99.90;;;;;;5092049;28;20510;-71
2023/06/10 04:03:22;;;;;;;14.65;9.88;;;22.50;99.90;;;;;;5091201;28;20047;-72
2023/06/10 04:06:29;;;;;;;12.38;10.23;;;22.50;99.90;;;;;;5079176;28;20051;-72
2023/06/10 04:09:33;;;;;;;17.42;9.85;;;22.50;99.90;;;;;;5079578;28;20051;-72
2023/06/10 04:12:38;;;;;;;16.27;9.63;;;22.40;99.90;;;;;;5092431;28;20043;-72
2023/06/10 04:15:43;;;;;;;10.02;8.45;;;22.40;99.90;;;;;;5090672;28;20060;-72
2023/06/10 04:18:51;;;;;;;13.45;8.25;;;22.40;99.90;;;;;;5078461;28;20043;-71
2023/06/10 04:21:56;;;;;;;13.35;7.10;;;22.40;99.90;;;;;;5067076;28;20047;-72
2023/06/10 04:25:00;;;;;;;19.20;7.95;;;22.40;99.90;;;;;;5078575;28;20040;-72
2023/06/10 04:28:04;;;;;;;17.70;8.18;;;22.50;99.90;;;;;;5090602;28;20411;-72
2023/06/10 04:31:08;;;;;;;17.48;8.30;;;22.50;99.90;;;;;;5078203;28;20047;-72
2023/06/10 04:34:13;;;;;;;15.20;8.88;;;22.60;99.90;;;;;;5090764;28;20633;-72
2023/06/10 04:37:18;;;;;;;13.02;8.52;;;22.60;99.90;;;;;;5078348;28;20130;-72
2023/06/10 04:40:22;;;;;;;23.27;12.38;;;22.60;99.90;;;;;;5090709;28;20408;-72
2023/06/10 04:43:28;;;;;;;35.22;18.13;;;22.50;99.90;;;;;;5081782;28;20063;-71
2023/06/10 04:46:33;;;;;;;43.15;23.75;;;22.50;99.90;;;;;;5094352;28;20043;-71
2023/06/10 04:49:36;;;;;;;43.60;24.73;;;22.50;99.90;;;;;;5081983;28;20043;-71
2023/06/10 04:52:41;;;;;;;48.72;23.05;;;22.40;99.90;;;;;;5094347;28;20510;-71
2023/06/10 04:55:46;;;;;;;45.00;23.25;;;22.40;99.90;;;;;;5094201;28;20054;-72
2023/06/10 04:58:50;;;;;;;39.67;22.10;;;22.50;99.90;;;;;;5094399;28;20043;-72
2023/06/10 05:01:55;;;;;;;36.63;22.45;;;22.50;99.90;;;;;;5094107;28;20043;-72
2023/06/10 05:04:59;;;;;;;43.42;23.05;;;22.50;99.90;;;;;;5094180;28;20087;-72
2023/06/10 05:08:03;;;;;;;45.97;22.65;;;22.50;99.90;;;;;;5093642;28;20407;-72
2023/06/10 05:11:07;;;;;;;27.30;17.08;;;22.50;99.90;;;;;;5094335;28;20384;-72
2023/06/10 05:14:11;;;;;;;21.73;13.15;;;22.50;99.90;;;;;;5093590;28;20039;-72
2023/06/10 05:17:15;;;;;;;22.80;9.10;;;22.50;99.90;;;;;;5093903;28;20062;-71
2023/06/10 05:20:18;;;;;;;20.27;8.95;;;22.50;99.90;;;;;;5093899;28;20039;-63
2023/06/10 05:23:23;;;;;;;19.67;8.82;;;22.40;99.90;;;;;;5093752;28;20059;-63
2023/06/10 05:26:28;;;;;;;21.83;8.43;;;22.50;99.90;;;;;;5093480;28;20038;-63
2023/06/10 05:29:33;;;;;;;20.73;8.10;;;22.60;99.90;;;;;;5093895;28;20051;-63
2023/06/10 05:32:37;;;;;;;17.08;7.35;;;22.70;99.90;;;;;;5093396;28;20043;-63
2023/06/10 05:35:41;;;;;;;29.38;7.60;;;22.80;99.90;;;;;;5093329;28;20114;-63
2023/06/10 05:38:45;;;;;;;23.30;7.72;;;22.80;99.90;;;;;;5093449;28;20055;-64
2023/06/10 05:41:49;;;;;;;17.98;7.50;;;22.90;99.90;;;;;;5093414;28;20047;-64
2023/06/10 05:44:53;;;;;;;17.10;8.85;;;23.00;99.90;;;;;;5093201;28;20043;-64
2023/06/10 05:47:57;;;;;;;23.83;9.05;;;23.00;99.90;;;;;;5093033;28;20484;-64
2023/06/10 05:51:01;;;;;;;21.02;10.00;;;23.00;99.90;;;;;;5093428;28;20145;-63
2023/06/10 05:54:05;;;;;;;20.05;9.38;;;23.00;99.90;;;;;;5092871;28;20050;-64
2023/06/10 05:57:10;;;;;;;43.30;11.00;;;23.00;99.90;;;;;;5092891;28;20055;-64
2023/06/10 06:00:14;;;;;;;26.20;10.55;;;23.10;99.90;;;;;;5092770;28;20039;-64
2023/06/10 06:03:19;;;;;;;23.98;8.63;;;23.10;99.90;;;;;;5092846;28;20302;-64
2023/06/10 06:06:23;;;;;;;70.78;10.48;;;23.10;99.90;;;;;;5092816;28;20059;-63
2023/06/10 06:09:27;;;;;;;54.85;10.05;;;23.20;99.90;;;;;;5092692;28;20047;-63
2023/06/10 06:12:31;;;;;;;21.63;7.50;;;23.30;99.90;;;;;;5092475;28;20055;-63
2023/06/10 06:15:35;;;;;;;10.40;6.57;;;23.40;99.90;;;;;;5092289;28;20063;-64
2023/06/10 06:18:39;;;;;;;25.30;8.20;;;23.50;99.90;;;;;;5092640;28;20039;-64
2023/06/10 06:21:43;;;;;;;33.20;9.85;;;23.60;99.90;;;;;;5092770;28;20078;-64
2023/06/10 06:24:47;;;;;;;29.13;8.27;;;23.70;99.90;;;;;;5092312;28;20063;-65
2023/06/10 06:27:51;;;;;;;25.40;9.57;;;23.70;99.90;;;;;;5079759;28;20051;-66
2023/06/10 06:30:58;;;;;;;40.40;9.13;;;23.60;99.90;;;;;;5092286;28;20404;-66
2023/06/10 06:34:02;;;;;;;19.25;8.95;;;23.50;99.90;;;;;;5092235;28;20498;-66
2023/06/10 06:37:05;;;;;;;20.33;8.45;;;23.50;99.90;;;;;;5092015;28;20051;-65
2023/06/10 06:40:12;;;;;;;31.42;9.90;;;23.50;99.90;;;;;;5068408;28;20048;-65
2023/06/10 06:43:17;;;;;;;18.27;8.23;;;23.60;99.90;;;;;;5092064;28;20039;-64
2023/06/10 06:46:40;;;;;;;20.98;8.18;;;23.70;99.90;;;;;;5092012;28;20055;-65
2023/06/10 06:49:45;;;;;;;24.30;9.13;;;23.80;99.90;;;;;;5092275;28;20038;-64
2023/06/10 06:52:49;;;;;;;167.23;17.90;;;23.80;99.50;;;;;;5091789;28;20467;-67
2023/06/10 06:55:53;;;;;;;64.53;10.20;;;23.80;99.70;;;;;;5091696;28;20534;-65
2023/06/10 06:58:57;;;;;;;18.60;6.65;;;23.90;99.70;;;;;;5091479;28;20047;-64
2023/06/10 07:02:01;;;;;;;23.15;8.00;;;23.90;99.30;;;;;;5091690;28;20043;-66
2023/06/10 07:05:05;;;;;;;15.77;7.35;;;24.00;99.10;;;;;;5091425;28;20119;-63
2023/06/10 07:08:09;;;;;;;10.90;7.18;;;24.00;98.80;;;;;;5090492;28;20051;-64
2023/06/10 07:11:13;;;;;;;12.27;6.45;;;24.00;98.90;;;;;;5091234;28;20055;-64
2023/06/10 07:14:18;;;;;;;11.80;6.00;;;24.00;99.00;;;;;;5091690;28;20043;-64
2023/06/10 07:17:22;;;;;;;9.65;6.30;;;24.10;98.80;;;;;;5091176;28;20414;-64
2023/06/10 07:20:25;;;;;;;14.68;7.03;;;24.20;98.60;;;;;;5091458;28;20043;-65
2023/06/10 07:23:30;;;;;;;9.38;5.18;;;24.30;98.40;;;;;;5091590;28;20047;-64
2023/06/10 07:26:34;;;;;;;6.70;4.85;;;24.30;98.20;;;;;;5090877;28;20157;-64
2023/06/10 07:29:38;;;;;;;12.02;5.22;;;24.40;97.80;;;;;;5091431;28;20043;-64
2023/06/10 07:32:43;;;;;;;9.55;4.80;;;24.50;97.40;;;;;;5091388;28;20060;-66
2023/06/10 07:35:47;;;;;;;9.50;4.75;;;24.50;97.30;;;;;;5078502;28;20051;-64
2023/06/10 07:38:50;;;;;;;6.72;4.15;;;24.50;97.20;;;;;;5091190;28;20083;-65
2023/06/10 07:41:56;;;;;;;17.02;5.13;;;24.70;97.30;;;;;;5091329;28;20047;-65
2023/06/10 07:45:02;;;;;;;7.65;3.85;;;24.80;96.00;;;;;;5090413;28;20405;-64
2023/06/10 07:48:07;;;;;;;12.68;4.65;;;24.90;96.00;;;;;;5091112;28;20039;-64
2023/06/10 07:51:10;;;;;;;7.20;4.38;;;25.00;95.50;;;;;;5091349;28;20047;-64
2023/06/10 07:54:14;;;;;;;11.65;5.13;;;25.20;95.30;;;;;;5091079;28;20051;-65
2023/06/10 07:57:19;;;;;;;55.15;7.55;;;25.30;95.60;;;;;;5090765;28;20071;-64
2023/06/10 08:00:24;;;;;;;11.73;4.95;;;25.50;95.30;;;;;;5090680;28;20047;-64
2023/06/10 08:03:28;;;;;;;12.98;5.25;;;25.60;94.60;;;;;;5090654;28;20044;-63
2023/06/10 08:06:31;;;;;;;9.27;5.40;;;25.60;94.80;;;;;;5090839;28;20404;-64
2023/06/10 08:09:35;;;;;;;10.82;4.90;;;25.70;94.80;;;;;;5090500;28;20063;-64
2023/06/10 08:12:39;;;;;;;12.30;5.72;;;25.80;94.70;;;;;;5089759;28;20044;-64
2023/06/10 08:15:43;;;;;;;10.18;5.70;;;25.90;94.60;;;;;;5090635;28;20059;-64
2023/06/10 08:18:47;;;;;;;8.48;5.18;;;25.90;94.50;;;;;;5094887;28;20067;-64
2023/06/10 08:21:51;;;;;;;14.55;5.90;;;26.00;94.20;;;;;;5094850;28;20055;-64
2023/06/10 08:24:55;;;;;;;14.10;6.45;;;26.00;94.10;;;;;;5094415;28;20415;-63
2023/06/10 08:28:00;;;;;;;18.63;7.55;;;26.10;94.30;;;;;;5082036;28;20043;-64
2023/06/10 08:31:04;;;;;;;10.73;6.43;;;26.10;94.50;;;;;;5094597;28;20054;-63
2023/06/10 08:34:07;;;;;;;11.43;6.28;;;26.10;94.90;;;;;;5094331;28;20106;-64
2023/06/10 08:37:11;;;;;;;11.65;6.35;;;26.20;95.00;;;;;;5094258;28;20051;-64
2023/06/10 08:40:15;;;;;;;17.45;6.60;;;26.20;95.20;;;;;;5094174;28;20039;-64
2023/06/10 08:43:31;;;;;;;10.00;5.72;;;26.30;95.00;;;;;;5094206;28;20051;-64
2023/06/10 08:46:36;;;;;;;17.90;6.65;;;26.40;94.90;;;;;;5094499;28;20051;-64
2023/06/10 08:49:45;;;;;;;9.63;5.60;;;26.40;94.80;;;;;;5094652;28;20055;-64
2023/06/10 08:52:53;;;;;;;15.93;6.47;;;26.40;94.40;;;;;;5094124;28;20134;-64
2023/06/10 08:56:00;;;;;;;11.93;5.45;;;26.20;94.20;;;;;;5094051;28;20062;-64
2023/06/10 08:59:05;;;;;;;11.57;5.70;;;26.20;94.40;;;;;;5094239;28;20522;-64
2023/06/10 09:02:10;;;;;;;14.88;6.38;;;26.10;94.40;;;;;;5081681;28;20039;-64
2023/06/10 09:05:14;;;;;;;16.13;6.47;;;26.00;94.40;;;;;;5093849;28;20043;-64
2023/06/10 09:08:18;;;;;;;12.40;4.70;;;25.90;94.60;;;;;;5081212;28;20055;-64
2023/06/10 09:11:24;;;;;;;11.52;5.60;;;25.80;94.90;;;;;;5093051;28;20043;-64
2023/06/10 09:14:28;;;;;;;10.05;5.80;;;25.80;95.10;;;;;;5094136;28;20400;-64
2023/06/10 09:17:32;;;;;;;10.07;6.03;;;25.70;95.10;;;;;;5093812;28;20368;-64
2023/06/10 09:20:38;;;;;;;11.48;5.85;;;25.70;95.20;;;;;;5093873;28;20047;-64
2023/06/10 09:23:43;;;;;;;7.53;5.00;;;25.70;95.20;;;;;;5093849;28;20059;-63
2023/06/10 09:26:47;;;;;;;11.20;5.63;;;25.60;95.30;;;;;;5080932;28;20495;-63
2023/06/10 09:29:52;;;;;;;11.82;6.30;;;25.60;95.40;;;;;;5093431;28;20043;-64
2023/06/10 09:32:57;;;;;;;35.40;8.40;;;25.50;95.30;;;;;;5093712;28;20051;-63
2023/06/10 09:36:03;;;;;;;23.13;9.07;;;25.50;96.00;;;;;;5093188;28;20051;-63
2023/06/10 09:39:18;;;;;;;19.80;8.52;;;25.40;98.10;;;;;;5081050;28;20364;-63
2023/06/10 09:42:21;;;;;;;18.33;9.05;;;25.20;98.90;;;;;;5093103;28;20051;-62
2023/06/10 09:45:32;;;;;;;18.42;9.20;;;25.10;99.70;;;;;;5093083;28;20039;-64
2023/06/10 09:48:41;;;;;;;;;;;25.00;99.50;;;;;;5081126;28;20153;-63
2023/06/10 09:51:53;;;;;;;16.05;7.03;;;24.90;99.30;;;;;;5091705;28;19908;-63
2023/06/10 09:55:01;;;;;;;10.05;7.13;;;24.90;99.20;;;;;;5092262;28;20043;-65
2023/06/10 09:58:05;;;;;;;13.57;7.25;;;24.90;99.60;;;;;;5080083;28;20039;-66
2023/06/10 10:01:11;;;;;;;20.02;8.38;;;24.80;99.30;;;;;;5080275;28;20043;-66
2023/06/10 10:04:24;;;;;;;15.82;7.55;;;24.80;99.40;;;;;;5092867;28;20051;-65
2023/06/10 10:07:28;;;;;;;13.10;8.45;;;24.80;99.50;;;;;;5092442;28;20302;-65
2023/06/10 10:10:32;;;;;;;19.33;7.85;;;24.80;99.90;;;;;;5092985;28;20051;-64
2023/06/10 10:13:37;;;;;;;17.67;7.55;;;24.80;99.90;;;;;;5092124;28;20059;-63
2023/06/10 10:16:43;;;;;;;17.52;6.95;;;24.60;99.80;;;;;;5091167;28;20058;-63
2023/06/10 10:19:50;;;;;;;17.77;7.00;;;24.60;99.90;;;;;;5091903;28;20066;-63
2023/06/10 10:22:57;;;;;;;15.90;6.90;;;24.60;99.90;;;;;;5092248;28;20403;-63
2023/06/10 10:26:05;;;;;;;17.17;7.35;;;24.50;99.90;;;;;;5092471;28;20047;-62
2023/06/10 10:29:23;;;;;;;15.43;6.88;;;24.50;99.90;;;;;;5092121;28;20036;-63
2023/06/10 10:32:40;;;;;;;16.88;6.40;;;24.50;99.90;;;;;;5092309;28;20036;-63
2023/06/10 10:35:46;;;;;;;11.82;6.38;;;24.40;99.80;;;;;;5079824;28;20054;-63
2023/06/10 10:38:50;;;;;;;13.15;5.78;;;24.40;99.50;;;;;;5092004;28;20051;-63
2023/06/10 10:41:55;;;;;;;10.75;5.45;;;24.40;99.30;;;;;;5092246;28;20399;-63
2023/06/10 10:44:59;;;;;;;11.80;5.70;;;24.30;98.60;;;;;;5090818;28;20039;-63
2023/06/10 10:48:11;;;;;;;14.13;5.45;;;24.30;98.70;;;;;;5091974;28;20043;-63
2023/06/10 10:51:15;;;;;;;10.88;6.13;;;24.30;97.80;;;;;;5092269;28;20202;-63
2023/06/10 10:54:29;;;;;;;14.73;7.40;;;24.40;98.80;;;;;;5091755;28;20043;-63
2023/06/10 10:57:39;;;;;;;9.85;6.03;;;24.50;99.40;;;;;;5091632;28;20051;-63
2023/06/10 11:00:44;;;;;;;19.13;6.68;;;24.60;99.20;;;;;;5091895;28;20043;-63
2023/06/10 11:03:49;;;;;;;12.60;6.85;;;24.60;99.20;;;;;;5091820;28;20047;-63
2023/06/10 11:06:53;;;;;;;14.40;8.30;;;24.70;99.20;;;;;;5091265;28;20039;-63
2023/06/10 11:10:09;;;;;;;16.23;7.95;;;24.70;99.80;;;;;;5091595;28;20051;-63
2023/06/10 11:13:15;;;;;;;11.45;6.15;;;24.60;99.80;;;;;;5091671;28;20054;-63
2023/06/10 11:16:19;;;;;;;11.88;7.05;;;24.40;99.00;;;;;;5091369;28;20063;-63
2023/06/10 11:19:38;;;;;;;9.70;7.03;;;24.30;99.70;;;;;;5091405;28;20039;-63
2023/06/10 11:23:02;;;;;;;12.57;5.43;;;24.20;99.90;;;;;;5091652;28;20043;-63
2023/06/10 11:26:42;;;;;;;11.13;5.85;;;24.20;99.10;;;;;;5091237;28;20395;-63
2023/06/10 11:29:58;;;;;;;8.98;5.78;;;24.30;99.00;;;;;;5091393;28;20047;-63
2023/06/10 11:33:02;;;;;;;10.23;5.93;;;24.30;98.20;;;;;;5091110;28;20399;-63
2023/06/10 11:36:07;;;;;;;9.50;5.65;;;24.40;98.40;;;;;;5090808;28;20047;-63
2023/06/10 11:39:12;;;;;;;15.05;6.10;;;24.50;98.80;;;;;;5091071;28;20075;-64
2023/06/10 11:42:17;;;;;;;14.45;5.50;;;24.50;98.60;;;;;;5091130;28;20035;-63
2023/06/10 11:45:21;;;;;;;13.15;5.60;;;24.70;97.70;;;;;;5091257;28;20070;-64
2023/06/10 11:48:28;;;;;;;10.27;5.35;;;24.70;97.30;;;;;;5090814;28;20050;-63
2023/06/10 11:51:38;;;;;;;9.60;5.72;;;24.80;97.20;;;;;;5078087;28;20043;-63
2023/06/10 11:54:42;;;;;;;15.48;6.07;;;24.90;97.10;;;;;;5090915;28;20498;-64
2023/06/10 11:57:47;;;;;;;13.55;5.43;;;25.00;97.00;;;;;;5090933;28;20522;-64
2023/06/10 12:00:58;;;;;;;16.23;7.00;;;25.10;96.70;;;;;;5091136;28;20054;-64
2023/06/10 12:04:01;;;;;;;13.93;5.88;;;25.00;96.80;;;;;;5091034;28;20051;-64
2023/06/10 12:07:05;;;;;;;12.88;6.38;;;25.00;97.10;;;;;;5090533;28;20165;-64
2023/06/10 12:10:09;;;;;;;13.25;6.28;;;25.20;97.10;;;;;;5090692;28;20071;-63
2023/06/10 12:13:13;;;;;;;10.73;5.10;;;25.30;96.90;;;;;;5090497;28;20515;-63
2023/06/10 12:16:17;;;;;;;13.20;5.95;;;25.30;96.60;;;;;;5090542;28;20067;-63
2023/06/10 12:19:21;;;;;;;9.77;5.28;;;25.40;96.70;;;;;;5091071;28;20048;-64
2023/06/10 12:22:26;;;;;;;13.45;5.70;;;25.50;95.70;;;;;;5090756;28;20046;-64
2023/06/10 12:25:30;;;;;;;11.73;6.53;;;25.50;95.00;;;;;;5090970;28;20047;-63
2023/06/10 12:28:34;;;;;;;16.33;6.93;;;25.50;95.80;;;;;;5090533;28;20047;-63
2023/06/10 12:31:57;;;;;;;13.55;6.40;;;25.70;96.00;;;;;;5090606;28;20322;-63
2023/06/10 12:35:05;;;;;;;10.73;5.85;;;25.70;95.90;;;;;;5090353;28;20043;-65
2023/06/10 12:38:11;;;;;;;10.70;4.57;;;25.70;94.40;;;;;;5090543;28;20054;-66
2023/06/10 12:41:16;;;;;;;14.40;6.50;;;25.70;94.80;;;;;;5090554;28;20035;-67
2023/06/10 12:44:29;;;;;;;12.85;6.70;;;25.80;95.00;;;;;;5092051;28;20035;-66
2023/06/10 12:47:38;;;;;;;9.70;5.38;;;25.80;94.90;;;;;;5090786;28;20043;-65
2023/06/10 12:50:43;;;;;;;8.57;5.07;;;25.80;94.70;;;;;;5090754;28;20048;-66
2023/06/10 12:53:47;;;;;;;10.48;5.32;;;25.90;94.90;;;;;;5090588;28;20039;-65
2023/06/10 12:56:51;;;;;;;10.57;5.38;;;26.10;94.80;;;;;;5090241;28;20051;-64
2023/06/10 13:00:00;;;;;;;9.82;5.25;;;26.00;94.70;;;;;;5090664;28;20415;-65
2023/06/10 13:03:07;;;;;;;7.68;5.13;;;25.90;94.50;;;;;;5091884;28;20046;-65
2023/06/10 13:06:11;;;;;;;10.10;5.30;;;25.80;94.20;;;;;;5094179;28;20047;-65
2023/06/10 13:09:15;;;;;;;11.50;6.22;;;25.80;94.30;;;;;;5092718;28;20058;-65
2023/06/10 13:12:20;;;;;;;10.95;5.05;;;25.80;94.40;;;;;;5093712;28;20046;-64
2023/06/10 13:15:26;;;;;;;11.00;5.03;;;25.80;94.60;;;;;;5093859;28;20051;-65
2023/06/10 13:18:30;;;;;;;11.02;5.38;;;26.00;94.40;;;;;;5093713;28;20043;-66
2023/06/10 13:21:34;;;;;;;10.75;5.00;;;26.10;94.10;;;;;;5093920;28;20649;-65
2023/06/10 13:24:43;;;;;;;8.15;4.53;;;26.20;93.80;;;;;;5093571;28;20043;-65
2023/06/10 13:27:47;;;;;;;10.00;5.05;;;26.20;93.90;;;;;;5093452;28;20043;-64
2023/06/10 13:30:51;;;;;;;13.18;5.93;;;26.20;93.90;;;;;;5093632;28;20385;-65
2023/06/10 13:33:55;;;;;;;10.80;4.55;;;26.10;94.10;;;;;;5093464;28;20047;-65
2023/06/10 13:36:59;;;;;;;9.13;4.97;;;26.00;94.30;;;;;;5093111;28;20066;-65
2023/06/10 13:40:03;;;;;;;8.48;4.55;;;26.00;94.30;;;;;;5093179;28;20043;-65
2023/06/10 13:43:09;;;;;;;14.70;5.32;;;26.00;94.30;;;;;;5093281;28;20062;-65
2023/06/10 13:46:13;;;;;;;14.13;5.38;;;26.00;94.20;;;;;;5093141;28;20055;-65
2023/06/10 13:49:17;;;;;;;7.43;4.68;;;26.00;94.30;;;;;;5093177;28;20059;-65
2023/06/10 13:52:21;;;;;;;8.30;4.68;;;26.20;94.80;;;;;;5093263;28;20388;-64
2023/06/10 13:55:25;;;;;;;8.02;5.57;;;26.30;94.90;;;;;;5093124;28;20055;-65
2023/06/10 13:58:29;;;;;;;10.43;5.05;;;26.40;94.20;;;;;;5093057;28;20055;-65
2023/06/10 14:01:33;;;;;;;14.80;5.85;;;26.40;93.80;;;;;;5080459;28;20215;-65
2023/06/10 14:04:38;;;;;;;8.95;5.05;;;26.40;93.70;;;;;;5092757;28;20047;-65
2023/06/10 14:07:42;;;;;;;15.30;5.38;;;26.40;93.90;;;;;;5092524;28;20502;-65
2023/06/10 14:10:45;;;;;;;14.02;5.32;;;26.30;93.80;;;;;;5092841;28;20047;-65
2023/06/10 14:13:51;;;;;;;10.80;5.60;;;26.20;93.80;;;;;;5092137;28;20495;-65
2023/06/10 14:16:55;;;;;;;9.95;4.25;;;26.20;93.70;;;;;;5092290;28;20518;-65
2023/06/10 14:19:59;;;;;;;6.47;4.10;;;26.10;93.70;;;;;;5079869;28;20063;-65
2023/06/10 14:23:03;;;;;;;13.43;5.78;;;26.10;93.80;;;;;;5092524;28;20067;-64
2023/06/10 14:26:07;;;;;;;8.88;4.68;;;26.10;94.20;;;;;;5092412;28;20063;-64
2023/06/10 14:29:14;;;;;;;9.57;4.90;;;26.10;94.20;;;;;;5092005;28;20039;-64
2023/06/10 14:32:18;;;;;;;8.63;4.68;;;26.10;94.20;;;;;;5092328;28;20047;-64
2023/06/10 14:35:22;;;;;;;8.35;4.15;;;26.10;94.30;;;;;;5092146;28;20050;-64
2023/06/10 14:38:26;;;;;;;8.13;4.35;;;26.10;94.40;;;;;;5091868;28;20401;-64
2023/06/10 14:41:30;;;;;;;10.25;4.97;;;26.10;94.60;;;;;;5092277;28;20051;-64
2023/06/10 14:44:34;;;;;;;8.50;4.75;;;26.10;94.90;;;;;;5092374;28;20502;-64
2023/06/10 14:47:38;;;;;;;10.32;4.65;;;26.10;95.20;;;;;;5092175;28;20380;-65
2023/06/10 14:50:45;;;;;;;7.65;4.65;;;26.10;95.40;;;;;;5092127;28;20055;-64
2023/06/10 14:53:48;;;;;;;9.05;3.90;;;26.10;95.30;;;;;;5091981;28;20051;-64
2023/06/10 14:56:52;;;;;;;8.98;4.50;;;26.20;95.20;;;;;;5091618;28;20059;-64
2023/06/10 14:59:56;;;;;;;9.85;3.80;;;26.30;94.80;;;;;;5091488;28;20391;-64
2023/06/10 15:03:00;;;;;;;10.82;4.35;;;26.40;94.40;;;;;;5091879;28;20388;-64
2023/06/10 15:06:04;;;;;;;11.00;4.60;;;26.40;93.90;;;;;;5091351;28;20498;-64
2023/06/10 15:09:08;;;;;;;14.82;4.43;;;26.50;93.70;;;;;;5091421;28;20055;-65
2023/06/10 15:12:12;;;;;;;12.00;4.10;;;26.50;93.20;;;;;;5091682;28;20102;-65
2023/06/10 15:15:16;;;;;;;7.95;3.88;;;26.50;93.00;;;;;;5091324;28;20396;-65
2023/06/10 15:18:20;;;;;;;10.13;4.07;;;26.50;93.40;;;;;;5091334;28;20475;-65
2023/06/10 15:21:25;;;;;;;9.40;4.78;;;26.40;93.30;;;;;;5091186;28;20047;-64
2023/06/10 15:24:29;;;;;;;11.05;4.50;;;26.40;93.40;;;;;;5091203;28;20066;-64
2023/06/10 15:27:33;;;;;;;8.48;4.15;;;26.40;93.50;;;;;;5091008;28;20047;-65
2023/06/10 15:30:37;;;;;;;9.38;4.15;;;26.30;93.70;;;;;;5091342;28;20538;-64
2023/06/10 15:33:41;;;;;;;11.15;4.28;;;26.30;93.70;;;;;;5091106;28;20047;-64
2023/06/10 15:36:45;;;;;;;13.07;4.85;;;26.20;93.70;;;;;;5090985;28;20051;-64
2023/06/10 15:39:49;;;;;;;10.00;4.68;;;26.20;93.90;;;;;;5091228;28;20503;-63
2023/06/10 15:42:53;;;;;;;9.68;4.13;;;26.10;93.70;;;;;;5090834;28;20039;-63
2023/06/10 15:45:57;;;;;;;17.77;5.78;;;26.10;93.60;;;;;;5091132;28;20046;-63
2023/06/10 15:49:01;;;;;;;12.85;4.65;;;26.00;93.60;;;;;;5091063;28;20047;-63
2023/06/10 15:52:05;;;;;;;12.40;4.55;;;26.00;93.70;;;;;;5090859;28;20046;-63
2023/06/10 15:55:09;;;;;;;7.35;4.30;;;26.00;93.80;;;;;;5090905;28;20486;-64